Nearby METAR Reports

 

EFHK - Helsinki/Vantaa, Finland
Distance from station: ENE 25km
Updated: 16/11/2018 07:20
Light drizzle, Overcast
Light drizzle, Overcast
 Wind from SSW
Wind: SSW 26 km/h
Temperature: 9°C
Wind Chill: 6°C
Dew Point: 8°C
Humidity: 94%
Barometer: 1033 hPa
Summary: Light Drizzle
Clouds: Overcast
Visibility: 7 km
Cloud details: Overcast 152 m
2018/11/16 05:20 EFHK 160520Z 20014KT 7000 -DZ OVC005 09/08 Q1033 TEMPO OVC004
EFHF - Helsinki/Malmi, Finland
Distance from station: E 29km
Updated: 06/03/2017 17:50
NOT Current
Clear
Clear
 Wind from NE
Wind: NE 11 km/h
Temperature: -2°C
Wind Chill: -6°C
Dew Point: -11°C
Humidity: 51%
Barometer: 1021 hPa
Summary: Clear
Visibility: greater than 10 km
2017/03/06 15:50 EFHF 061550Z 04006KT 330V100 CAVOK M02/M11 Q1021
 
EETN - Tallinn, Estonia
Distance from station: S 97km
Updated: 16/11/2018 07:20
Overcast
Overcast
 Wind from SSW
Wind: SSW 22 km/h
Temperature: 7°C
Wind Chill: 4°C
Dew Point: 6°C
Humidity: 93%
Barometer: 1035 hPa
Clouds: Overcast
Visibility: 10 km
Cloud details: Overcast 274 m
2018/11/16 05:20 EETN 160520Z 21012KT 9999 OVC009 07/06 Q1035 R08/19//95 NOSIG
EFTU - Turku/Abo, Finland
Distance from station: WNW 127km
Updated: 16/11/2018 07:20
Overcast
Overcast
 Wind from SW
Wind: SW 15 km/h
Temperature: 8°C
Wind Chill: 5°C
Dew Point: 8°C
Humidity: 100%
Barometer: 1031 hPa
Clouds: Overcast
Visibility: 9 km
Cloud details: Mostly cloudy 122 m
Overcast 457 m
2018/11/16 05:20 EFTU 160520Z AUTO 22008KT 9000 BKN004/// OVC015/// 08/08 Q1031
 
EFTP - Tampere/Pirkkala, Finland
Distance from station: NNW 138km
Updated: 16/11/2018 07:20
Overcast
Overcast
 Wind from SSW
Wind: SSW 17 km/h
Temperature: 8°C
Wind Chill: 5°C
Dew Point: 8°C
Humidity: 100%
Barometer: 1030 hPa
Clouds: Overcast
Visibility: 10 km
Cloud details: Few Clouds 152 m
Mostly cloudy 213 m
Overcast 305 m
2018/11/16 05:20 EFTP 160520Z AUTO 21009KT 9999 FEW005 BKN007 OVC010 08/08 Q1030
EFPO - Pori (mil/Civ), Finland
Distance from station: NW 199km
Updated: 16/11/2018 07:20
Overcast
Overcast
 Wind from SSW
Wind: SSW 15 km/h
Temperature: 9°C
Wind Chill: 7°C
Dew Point: 8°C
Humidity: 94%
Barometer: 1029 hPa
Clouds: Overcast
Visibility: 10 km
Cloud details: Mostly cloudy 244 m
Overcast 457 m
2018/11/16 05:20 EFPO 160520Z AUTO 21008KT 180V240 9999 BKN008/// OVC015/// 09/08 Q1029
 
EFLP - Lappeenranta, Finland
Distance from station: ENE 216km
Updated: 16/11/2018 07:20
Mist, Overcast
Mist, Overcast
 Wind from SSW
Wind: SSW 15 km/h
Temperature: 7°C
Wind Chill: 4°C
Dew Point: 6°C
Humidity: 93%
Barometer: 1032 hPa
Summary: Mist
Clouds: Overcast
Visibility: 4 km
Cloud details: Overcast 91 m
2018/11/16 05:20 EFLP 160520Z AUTO 21008KT 180V240 3700 BR OVC003 07/06 Q1032
EFMI - Mikkeli, Finland
Distance from station: NE 220km
Updated: 16/11/2018 07:20
Overcast
Overcast
 Wind from SSW
Wind: SSW 7 km/h
Temperature: 8°C
Wind Chill: 7°C
Dew Point: 7°C
Humidity: 93%
Barometer: 1031 hPa
Clouds: Overcast
Visibility: 9 km
Cloud details: Overcast 152 m
2018/11/16 05:20 EFMI 160520Z AUTO 21004KT 150V260 9000 OVC005 08/07 Q1031
 
EFJY - Jyvaskyla (mil/C, Finland
Distance from station: NNE 245km
Updated: 16/11/2018 07:20
Mist, Overcast
Mist, Overcast
 Wind from SSW
Wind: SSW 15 km/h
Temperature: 7°C
Wind Chill: 4°C
Dew Point: 7°C
Humidity: 100%
Barometer: 1028 hPa
Summary: Mist
Clouds: Overcast
Visibility: 4 km
Cloud details: Overcast 183 m
2018/11/16 05:20 EFJY 160520Z AUTO 20008KT 4400 BR OVC006 07/07 Q1028
EFMA - Mariehamn/Aland, Finland
Distance from station: W 257km
Updated: 16/11/2018 07:20
Clear
Clear
 Wind from SW
Wind: SW 13 km/h
Temperature: 9°C
Wind Chill: 7°C
Dew Point: 7°C
Humidity: 87%
Barometer: 1032 hPa
Summary: Clear
Visibility: greater than 10 km
2018/11/16 05:20 EFMA 160520Z AUTO 22007KT 190V270 CAVOK 09/07 Q1032
 
EFVR - Varkaus, Finland
Distance from station: NE 277km
Updated: 15/04/2016 08:50
NOT Current
Clear
Clear
 Wind from NNW
Wind: NNW 15 km/h
Temperature: -1°C
Wind Chill: -6°C
Dew Point: -8°C
Humidity: 59%
Barometer: 1005 hPa
Summary: Clear
Visibility: greater than 10 km
2016/04/15 05:50 EFVR 150550Z AUTO 33008KT CAVOK M01/M08 Q1005
EFSI - Seinajoki-Ilmajo, Finland
Distance from station: NNW 285km
Updated: 16/11/2018 07:20
Overcast
Overcast
 Wind from SSW
Wind: SSW 17 km/h
Temperature: 9°C
Wind Chill: 7°C
Dew Point: 9°C
Humidity: 100%
Barometer: 1026 hPa
Clouds: Overcast
Visibility: 10 km
Cloud details: Partly cloudy 183 m
Overcast 244 m
2018/11/16 05:20 EFSI 160520Z AUTO 20009KT 160V280 9999 SCT006 OVC008 09/09 Q1026
 
KSJC - San Jose, California, USA
Distance from station: NNW 8758km
Updated: 16/11/2018 06:53
Haze, Overcast
Haze, Overcast
 Wind from ESE
Wind: ESE 6 km/h
Temperature: 11°C
Dew Point: 1°C
Humidity: 50%
Barometer: 1018.3 hPa
Summary: Haze
Clouds: Overcast
Visibility: 3 km
Cloud details: Few Clouds 30 m
Mostly cloudy 610 m
Overcast 914 m
2018/11/16 04:53 KSJC 160453Z 12003KT 2SM HZ FEW001 BKN020 OVC030 11/01 A3007 RMK AO2 SLP182 FU FEW001 FU BKN020 FU OVC030 T01110006